sensor_id;sensor_type;location;lat;lon;timestamp;pressure;altitude;pressure_sealevel;temperature;humidity
21357;BME280;10836;53.068;18.234;2023-02-04T17:04:43;102891.53;;;-2.61;100.00
21357;BME280;10836;53.068;18.234;2023-02-04T17:07:10;102890.44;;;-2.49;100.00
21357;BME280;10836;53.068;18.234;2023-02-04T17:09:37;102896.50;;;-2.47;100.00
21357;BME280;10836;53.068;18.234;2023-02-04T17:12:05;102891.88;;;-2.45;100.00
21357;BME280;10836;53.068;18.234;2023-02-04T17:14:31;102898.19;;;-2.46;100.00
21357;BME280;10836;53.068;18.234;2023-02-04T17:16:58;102895.97;;;-2.41;100.00
21357;BME280;10836;53.068;18.234;2023-02-04T17:19:25;102901.44;;;-2.43;100.00
21357;BME280;10836;53.068;18.234;2023-02-04T17:21:52;102902.31;;;-2.42;100.00
21357;BME280;10836;53.068;18.234;2023-02-04T17:24:19;102891.88;;;-2.45;100.00
21357;BME280;10836;53.068;18.234;2023-02-04T17:26:46;102897.66;;;-2.40;100.00
21357;BME280;10836;53.068;18.234;2023-02-04T17:29:14;102907.13;;;-2.36;100.00
21357;BME280;10836;53.068;18.234;2023-02-04T17:31:46;102905.97;;;-2.43;100.00
21357;BME280;10836;53.068;18.234;2023-02-04T17:34:13;102912.16;;;-2.43;100.00
21357;BME280;10836;53.068;18.234;2023-02-04T17:36:40;102902.09;;;-2.60;100.00
21357;BME280;10836;53.068;18.234;2023-02-04T17:39:07;102910.53;;;-2.55;100.00
21357;BME280;10836;53.068;18.234;2023-02-04T17:41:34;102907.47;;;-2.50;100.00
21357;BME280;10836;53.068;18.234;2023-02-04T17:44:01;102912.94;;;-2.52;100.00
21357;BME280;10836;53.068;18.234;2023-02-04T17:46:29;102906.88;;;-2.63;100.00
21357;BME280;10836;53.068;18.234;2023-02-04T17:48:56;102918.00;;;-2.58;100.00
21357;BME280;10836;53.068;18.234;2023-02-04T17:51:24;102914.06;;;-2.54;100.00
21357;BME280;10836;53.068;18.234;2023-02-04T17:53:51;102907.88;;;-2.55;100.00
21357;BME280;10836;53.068;18.234;2023-02-04T17:56:19;102907.28;;;-2.58;100.00
21357;BME280;10836;53.068;18.234;2023-02-04T17:58:47;102904.13;;;-2.73;100.00
21357;BME280;10836;53.068;18.234;2023-02-04T18:01:16;102905.44;;;-2.67;100.00
21357;BME280;10836;53.068;18.234;2023-02-04T18:03:44;102894.69;;;-2.77;100.00
21357;BME280;10836;53.068;18.234;2023-02-04T18:08:45;102899.53;;;-2.92;100.00
21357;BME280;10836;53.068;18.234;2023-02-04T18:11:19;102896.31;;;-2.86;100.00
21357;BME280;10836;53.068;18.234;2023-02-04T18:13:47;102899.53;;;-2.92;100.00
21357;BME280;10836;53.068;18.234;2023-02-04T18:16:22;102889.47;;;-2.79;100.00
21357;BME280;10836;53.068;18.234;2023-02-04T18:18:53;102886.94;;;-2.80;100.00
21357;BME280;10836;53.068;18.234;2023-02-04T18:21:26;102890.25;;;-2.88;100.00
21357;BME280;10836;53.068;18.234;2023-02-04T18:24:16;102898.72;;;-2.83;100.00
21357;BME280;10836;53.068;18.234;2023-02-04T18:26:52;102891.09;;;-2.87;100.00
21357;BME280;10836;53.068;18.234;2023-02-04T18:34:39;102918.44;;;-2.84;100.00
21357;BME280;10836;53.068;18.234;2023-02-04T18:42:27;102917.25;;;-2.91;100.00
21357;BME280;10836;53.068;18.234;2023-02-04T18:44:54;102930.09;;;-2.85;100.00
21357;BME280;10836;53.068;18.234;2023-02-04T18:47:28;102925.94;;;-2.78;100.00
21357;BME280;10836;53.068;18.234;2023-02-04T18:50:01;102925.28;;;-2.70;100.00
21357;BME280;10836;53.068;18.234;2023-02-04T18:52:42;102928.22;;;-2.73;100.00
21357;BME280;10836;53.068;18.234;2023-02-04T18:55:21;102936.81;;;-2.70;100.00
21357;BME280;10836;53.068;18.234;2023-02-04T18:57:49;102932.91;;;-2.65;100.00
21357;BME280;10836;53.068;18.234;2023-02-04T19:00:27;102930.38;;;-2.57;100.00
21357;BME280;10836;53.068;18.234;2023-02-04T19:03:06;102938.50;;;-2.69;100.00
21357;BME280;10836;53.068;18.234;2023-02-04T19:05:47;102940.22;;;-2.67;100.00
21357;BME280;10836;53.068;18.234;2023-02-04T19:08:29;102944.13;;;-2.72;100.00
21357;BME280;10836;53.068;18.234;2023-02-04T19:11:01;102943.00;;;-2.69;100.00
21357;BME280;10836;53.068;18.234;2023-02-04T19:13:39;102945.63;;;-2.79;100.00
21357;BME280;10836;53.068;18.234;2023-02-04T19:18:41;102958.94;;;-2.67;100.00
21357;BME280;10836;53.068;18.234;2023-02-04T19:21:32;102953.97;;;-2.72;100.00
21357;BME280;10836;53.068;18.234;2023-02-04T19:24:21;102958.72;;;-2.76;100.00
21357;BME280;10836;53.068;18.234;2023-02-04T19:26:53;102969.69;;;-2.79;100.00
21357;BME280;10836;53.068;18.234;2023-02-04T19:31:48;102980.63;;;-2.82;100.00
21357;BME280;10836;53.068;18.234;2023-02-04T19:34:22;102971.63;;;-2.81;100.00
21357;BME280;10836;53.068;18.234;2023-02-04T19:36:49;102985.91;;;-2.91;100.00
21357;BME280;10836;53.068;18.234;2023-02-04T19:41:50;102991.38;;;-2.93;100.00
21357;BME280;10836;53.068;18.234;2023-02-04T19:44:41;102991.34;;;-2.82;100.00
21357;BME280;10836;53.068;18.234;2023-02-04T19:47:35;103003.97;;;-2.84;100.00
21357;BME280;10836;53.068;18.234;2023-02-04T19:52:45;102998.38;;;-2.81;100.00
21357;BME280;10836;53.068;18.234;2023-02-04T19:57:45;103008.88;;;-2.68;100.00
21357;BME280;10836;53.068;18.234;2023-02-04T20:03:34;103005.50;;;-2.70;100.00
21357;BME280;10836;53.068;18.234;2023-02-04T20:14:22;103016.31;;;-2.72;100.00
21357;BME280;10836;53.068;18.234;2023-02-04T20:16:59;103018.75;;;-2.69;100.00
21357;BME280;10836;53.068;18.234;2023-02-04T20:19:33;103014.88;;;-2.76;100.00
21357;BME280;10836;53.068;18.234;2023-02-04T20:22:36;103021.94;;;-2.75;100.00
21357;BME280;10836;53.068;18.234;2023-02-04T20:25:33;103022.91;;;-2.76;100.00
21357;BME280;10836;53.068;18.234;2023-02-04T20:30:47;103016.38;;;-2.83;100.00
21357;BME280;10836;53.068;18.234;2023-02-04T20:33:22;103021.25;;;-2.88;100.00
21357;BME280;10836;53.068;18.234;2023-02-04T20:38:18;103026.41;;;-2.96;100.00
21357;BME280;10836;53.068;18.234;2023-02-04T20:40:46;103033.44;;;-2.95;100.00
21357;BME280;10836;53.068;18.234;2023-02-04T20:43:19;103032.00;;;-2.99;100.00
21357;BME280;10836;53.068;18.234;2023-02-04T20:45:52;103033.69;;;-2.98;100.00
21357;BME280;10836;53.068;18.234;2023-02-04T20:48:27;103041.25;;;-3.03;100.00
21357;BME280;10836;53.068;18.234;2023-02-04T20:50:57;103048.56;;;-3.05;100.00
21357;BME280;10836;53.068;18.234;2023-02-04T20:53:40;103053.63;;;-3.02;100.00
21357;BME280;10836;53.068;18.234;2023-02-04T20:56:31;103050.28;;;-3.04;100.00
21357;BME280;10836;53.068;18.234;2023-02-04T21:01:44;103059.31;;;-2.95;100.00
21357;BME280;10836;53.068;18.234;2023-02-04T21:04:23;103065.50;;;-2.95;100.00
21357;BME280;10836;53.068;18.234;2023-02-04T21:06:53;103069.72;;;-3.13;100.00
21357;BME280;10836;53.068;18.234;2023-02-04T21:09:26;103078.00;;;-3.16;100.00
21357;BME280;10836;53.068;18.234;2023-02-04T21:11:54;103078.97;;;-3.17;100.00
21357;BME280;10836;53.068;18.234;2023-02-04T21:14:22;103077.16;;;-3.17;100.00
21357;BME280;10836;53.068;18.234;2023-02-04T21:16:50;103082.84;;;-3.10;100.00
21357;BME280;10836;53.068;18.234;2023-02-04T21:19:19;103092.34;;;-3.17;100.00
21357;BME280;10836;53.068;18.234;2023-02-04T21:21:46;103097.31;;;-3.24;100.00
21357;BME280;10836;53.068;18.234;2023-02-04T21:24:14;103100.38;;;-3.28;100.00
21357;BME280;10836;53.068;18.234;2023-02-04T21:26:41;103091.25;;;-3.37;100.00
21357;BME280;10836;53.068;18.234;2023-02-04T21:29:08;103098.47;;;-3.49;100.00
21357;BME280;10836;53.068;18.234;2023-02-04T21:31:37;103107.22;;;-3.58;100.00
21357;BME280;10836;53.068;18.234;2023-02-04T21:34:05;103109.50;;;-3.64;100.00
21357;BME280;10836;53.068;18.234;2023-02-04T21:36:32;103114.50;;;-3.71;100.00
21357;BME280;10836;53.068;18.234;2023-02-04T21:38:59;103118.97;;;-3.72;100.00
21357;BME280;10836;53.068;18.234;2023-02-04T21:41:26;103123.94;;;-3.78;100.00
21357;BME280;10836;53.068;18.234;2023-02-04T21:43:53;103123.34;;;-3.82;100.00
21357;BME280;10836;53.068;18.234;2023-02-04T21:46:20;103128.06;;;-3.85;100.00
21357;BME280;10836;53.068;18.234;2023-02-04T21:48:47;103128.44;;;-3.90;100.00
21357;BME280;10836;53.068;18.234;2023-02-04T21:51:14;103136.66;;;-4.04;100.00
21357;BME280;10836;53.068;18.234;2023-02-04T21:53:42;103140.69;;;-3.98;100.00
21357;BME280;10836;53.068;18.234;2023-02-04T21:56:10;103140.41;;;-4.07;100.00
21357;BME280;10836;53.068;18.234;2023-02-04T21:58:37;103143.81;;;-4.05;100.00
21357;BME280;10836;53.068;18.234;2023-02-04T22:01:04;103151.09;;;-4.07;100.00
21357;BME280;10836;53.068;18.234;2023-02-04T22:03:31;103154.25;;;-4.02;100.00
21357;BME280;10836;53.068;18.234;2023-02-04T22:05:58;103173.69;;;-3.99;100.00
21357;BME280;10836;53.068;18.234;2023-02-04T22:08:26;103170.28;;;-4.02;100.00
21357;BME280;10836;53.068;18.234;2023-02-04T22:10:52;103165.16;;;-4.05;100.00
21357;BME280;10836;53.068;18.234;2023-02-04T22:13:19;103169.16;;;-4.10;100.00
21357;BME280;10836;53.068;18.234;2023-02-04T22:15:46;103175.31;;;-4.21;100.00
21357;BME280;10836;53.068;18.234;2023-02-04T22:18:14;103171.38;;;-4.39;100.00
21357;BME280;10836;53.068;18.234;2023-02-04T22:20:41;103172.81;;;-4.46;100.00
21357;BME280;10836;53.068;18.234;2023-02-04T22:23:08;103173.47;;;-4.55;100.00
21357;BME280;10836;53.068;18.234;2023-02-04T22:25:35;103178.53;;;-4.63;100.00
21357;BME280;10836;53.068;18.234;2023-02-04T22:28:02;103178.34;;;-4.73;100.00
21357;BME280;10836;53.068;18.234;2023-02-04T22:30:29;103176.00;;;-4.89;100.00
21357;BME280;10836;53.068;18.234;2023-02-04T22:32:56;103183.47;;;-4.94;100.00
21357;BME280;10836;53.068;18.234;2023-02-04T22:35:25;103177.91;;;-4.91;100.00
21357;BME280;10836;53.068;18.234;2023-02-04T22:37:55;103180.06;;;-4.96;100.00
21357;BME280;10836;53.068;18.234;2023-02-04T22:40:27;103174.84;;;-4.97;100.00
21357;BME280;10836;53.068;18.234;2023-02-04T22:42:54;103173.25;;;-5.00;100.00
21357;BME280;10836;53.068;18.234;2023-02-04T22:45:21;103179.66;;;-5.15;100.00
21357;BME280;10836;53.068;18.234;2023-02-04T22:47:48;103183.25;;;-5.27;100.00
21357;BME280;10836;53.068;18.234;2023-02-04T22:50:16;103175.38;;;-5.42;100.00
21357;BME280;10836;53.068;18.234;2023-02-04T22:52:43;103177.06;;;-5.41;100.00
21357;BME280;10836;53.068;18.234;2023-02-04T22:55:09;103185.59;;;-5.36;100.00
21357;BME280;10836;53.068;18.234;2023-02-04T22:57:37;103183.03;;;-5.50;100.00
21357;BME280;10836;53.068;18.234;2023-02-04T23:00:07;103192.63;;;-5.60;100.00
21357;BME280;10836;53.068;18.234;2023-02-04T23:02:35;103187.13;;;-5.70;100.00
21357;BME280;10836;53.068;18.234;2023-02-04T23:05:02;103194.47;;;-5.73;100.00
21357;BME280;10836;53.068;18.234;2023-02-04T23:07:30;103204.13;;;-5.85;100.00
21357;BME280;10836;53.068;18.234;2023-02-04T23:09:57;103209.47;;;-5.97;100.00
21357;BME280;10836;53.068;18.234;2023-02-04T23:12:24;103215.22;;;-6.04;100.00
21357;BME280;10836;53.068;18.234;2023-02-04T23:14:51;103216.81;;;-6.14;100.00
21357;BME280;10836;53.068;18.234;2023-02-04T23:17:18;103223.91;;;-6.27;100.00
21357;BME280;10836;53.068;18.234;2023-02-04T23:19:45;103218.56;;;-6.27;100.00
21357;BME280;10836;53.068;18.234;2023-02-04T23:22:13;103214.81;;;-6.37;100.00
21357;BME280;10836;53.068;18.234;2023-02-04T23:24:41;103215.00;;;-6.40;100.00
21357;BME280;10836;53.068;18.234;2023-02-04T23:27:09;103214.91;;;-6.51;100.00
21357;BME280;10836;53.068;18.234;2023-02-04T23:29:38;103211.69;;;-6.56;100.00
21357;BME280;10836;53.068;18.234;2023-02-04T23:32:05;103205.97;;;-6.50;100.00
21357;BME280;10836;53.068;18.234;2023-02-04T23:34:33;103210.53;;;-6.52;100.00
21357;BME280;10836;53.068;18.234;2023-02-04T23:37:00;103203.81;;;-6.58;100.00
21357;BME280;10836;53.068;18.234;2023-02-04T23:39:27;103200.53;;;-6.76;100.00
21357;BME280;10836;53.068;18.234;2023-02-04T23:41:55;103209.84;;;-6.83;100.00
21357;BME280;10836;53.068;18.234;2023-02-04T23:44:22;103199.44;;;-6.86;100.00
21357;BME280;10836;53.068;18.234;2023-02-04T23:46:49;103208.16;;;-6.84;100.00
21357;BME280;10836;53.068;18.234;2023-02-04T23:49:16;103208.34;;;-6.87;100.00
21357;BME280;10836;53.068;18.234;2023-02-04T23:51:43;103206.84;;;-6.91;100.00
21357;BME280;10836;53.068;18.234;2023-02-04T23:54:10;103209.16;;;-6.99;100.00
21357;BME280;10836;53.068;18.234;2023-02-04T23:56:38;103211.06;;;-7.01;100.00
21357;BME280;10836;53.068;18.234;2023-02-04T23:59:05;103210.31;;;-7.03;100.00
